Time;durP1;ratioP1;P1;durP2;ratioP2;P2;SDS_P1;SDS_P2;PMS_P1;PMS_P2;Temp;Humidity;BMP_temperature;BMP_pressure;BME280_temperature;BME280_humidity;BME280_pressure;Samples;Min_cycle;Max_cycle;Signal;HPM_P1;HPM_P2
2022/12/09 00:00:29;;;;;;;67.47;29.42;;;;;;;-0.79;100.00;100671.38;5204395;28;20155;-74
2022/12/09 00:03:00;;;;;;;69.90;28.83;;;;;;;-0.87;100.00;100671.84;5204614;28;20428;-74
2022/12/09 00:05:30;;;;;;;76.78;28.05;;;;;;;-0.95;100.00;100673.31;5204564;28;20487;-74
2022/12/09 00:08:00;;;;;;;73.03;31.02;;;;;;;-1.02;100.00;100667.56;5203778;28;20028;-74
2022/12/09 00:10:31;;;;;;;78.00;31.52;;;;;;;-1.06;100.00;100674.81;5204429;28;20094;-74
2022/12/09 00:13:01;;;;;;;94.90;34.38;;;;;;;-1.09;100.00;100664.47;5204551;28;20112;-75
2022/12/09 00:15:32;;;;;;;88.32;34.90;;;;;;;-1.10;100.00;100668.06;5204401;28;20071;-75
2022/12/09 00:18:02;;;;;;;87.90;33.67;;;;;;;-1.14;100.00;100669.19;5203763;28;20057;-75
2022/12/09 00:20:33;;;;;;;92.40;35.25;;;;;;;-1.18;100.00;100661.56;5198009;28;20112;-74
2022/12/09 00:23:03;;;;;;;82.63;32.60;;;;;;;-1.23;100.00;100666.28;5203868;28;20087;-74
2022/12/09 00:25:34;;;;;;;87.30;31.98;;;;;;;-1.29;100.00;100664.03;5197642;28;20021;-76
2022/12/09 00:28:04;;;;;;;89.15;32.50;;;;;;;-1.34;100.00;100670.44;5197134;28;20017;-76
2022/12/09 00:30:35;;;;;;;92.57;34.53;;;;;;;-1.35;100.00;100662.63;5204576;28;20186;-75
2022/12/09 00:33:05;;;;;;;89.03;35.30;;;;;;;-1.36;100.00;100661.75;5203859;28;20029;-75
2022/12/09 00:35:36;;;;;;;91.85;34.47;;;;;;;-1.37;100.00;100667.97;5204341;28;20029;-74
2022/12/09 00:38:06;;;;;;;90.00;32.65;;;;;;;-1.37;100.00;100672.38;5203290;28;20410;-75
2022/12/09 00:40:36;;;;;;;80.65;32.33;;;;;;;-1.34;100.00;100667.78;5204286;28;20087;-74
2022/12/09 00:43:07;;;;;;;92.63;34.88;;;;;;;-1.28;100.00;100668.34;5203356;28;20485;-75
2022/12/09 00:45:37;;;;;;;80.13;33.75;;;;;;;-1.26;100.00;100664.66;5203517;28;20582;-75
2022/12/09 00:48:08;;;;;;;79.45;32.90;;;;;;;-1.23;100.00;100669.75;5203309;28;20100;-74
2022/12/09 00:50:38;;;;;;;93.13;35.85;;;;;;;-1.24;100.00;100662.81;5203911;28;20023;-76
2022/12/09 00:53:08;;;;;;;83.85;33.60;;;;;;;-1.27;100.00;100656.88;5203688;28;20025;-75
2022/12/09 00:55:39;;;;;;;93.57;34.80;;;;;;;-1.34;100.00;100653.78;5203565;28;20031;-74
2022/12/09 00:58:10;;;;;;;80.28;32.78;;;;;;;-1.44;100.00;100652.66;5202894;28;20474;-74
2022/12/09 01:00:40;;;;;;;89.72;33.75;;;;;;;-1.52;100.00;100650.50;5203429;28;20075;-74
2022/12/09 01:03:13;;;;;;;85.43;32.47;;;;;;;-1.58;100.00;100653.50;5203448;28;20398;-73
2022/12/09 01:05:43;;;;;;;80.25;33.55;;;;;;;-1.60;100.00;100650.13;5203496;28;20026;-73
2022/12/09 01:08:14;;;;;;;95.60;34.58;;;;;;;-1.63;100.00;100653.78;5203263;28;20036;-74
2022/12/09 01:10:46;;;;;;;99.68;36.22;;;;;;;-1.68;100.00;100653.22;5203494;28;20563;-74
2022/12/09 01:13:16;;;;;;;91.03;34.10;;;;;;;-1.72;100.00;100650.84;5203455;28;20343;-74
2022/12/09 01:15:47;;;;;;;87.18;33.95;;;;;;;-1.79;100.00;100657.44;5203443;28;20026;-74
2022/12/09 01:18:17;;;;;;;92.25;35.72;;;;;;;-1.87;100.00;100658.72;5203372;28;20044;-74
2022/12/09 01:20:55;;;;;;;85.28;33.05;;;;;;;-1.93;100.00;100661.72;5196892;28;20048;-74
2022/12/09 01:23:26;;;;;;;89.05;33.78;;;;;;;-1.96;100.00;100661.06;5203446;28;20085;-74
2022/12/09 01:25:57;;;;;;;96.35;34.63;;;;;;;-1.98;100.00;100658.53;5195111;28;20033;-74
2022/12/09 01:28:27;;;;;;;105.13;37.78;;;;;;;-1.98;100.00;100661.16;5199916;28;20025;-75
2022/12/09 01:31:08;;;;;;;101.97;37.78;;;;;;;-1.97;100.00;100654.09;5203492;28;20044;-75
2022/12/09 01:33:39;;;;;;;99.55;37.05;;;;;;;-1.99;100.00;100659.47;5203027;28;20107;-74
2022/12/09 01:36:13;;;;;;;112.40;36.15;;;;;;;-2.00;100.00;100668.28;5203335;28;20394;-75
2022/12/09 01:38:45;;;;;;;104.15;38.75;;;;;;;-2.02;100.00;100659.63;5202983;28;20020;-75
2022/12/09 01:41:17;;;;;;;138.35;38.97;;;;;;;-2.03;100.00;100678.13;5203648;28;20489;-75
2022/12/09 01:44:09;;;;;;;108.88;35.60;;;;;;;-2.07;100.00;100672.19;5202868;28;20025;-75
2022/12/09 01:46:40;;;;;;;81.38;31.70;;;;;;;-2.13;100.00;100665.53;5197836;28;20021;-75
2022/12/09 01:49:16;;;;;;;89.38;32.28;;;;;;;-2.19;100.00;100673.78;5202730;28;20086;-74
2022/12/09 01:51:54;;;;;;;84.95;33.35;;;;;;;-2.26;100.00;100676.84;5203422;28;20025;-75
2022/12/09 01:54:25;;;;;;;88.32;32.60;;;;;;;-2.32;100.00;100672.78;5202527;28;20036;-74
2022/12/09 01:56:55;;;;;;;86.63;32.20;;;;;;;-2.37;100.00;100670.41;5205967;28;20025;-75
2022/12/09 01:59:27;;;;;;;103.00;33.28;;;;;;;-2.37;100.00;100674.81;5206871;28;20515;-74
2022/12/09 02:01:59;;;;;;;301.10;42.17;;;;;;;-2.40;100.00;100664.50;5207420;28;20379;-74
2022/12/09 02:04:35;;;;;;;115.88;32.78;;;;;;;-2.44;100.00;100668.25;5207238;28;20527;-74
2022/12/09 02:07:09;;;;;;;79.25;31.15;;;;;;;-2.50;100.00;100671.22;5207021;28;20037;-74
2022/12/09 02:09:42;;;;;;;77.47;30.98;;;;;;;-2.55;100.00;100658.34;5205975;28;20441;-75
2022/12/09 02:12:28;;;;;;;84.78;30.23;;;;;;;-2.58;100.00;100665.53;5207114;28;20368;-74
2022/12/09 02:15:11;;;;;;;67.72;27.48;;;;;;;-2.63;100.00;100665.81;5206464;28;20025;-74
2022/12/09 02:17:51;;;;;;;70.72;28.27;;;;;;;-2.65;100.00;100667.69;5206833;28;20021;-74
2022/12/09 02:20:26;;;;;;;78.95;28.83;;;;;;;-2.62;100.00;100660.44;5202511;28;20027;-73
2022/12/09 02:23:15;;;;;;;116.13;31.52;;;;;;;-2.60;100.00;100663.03;5204585;28;20075;-73
2022/12/09 02:26:04;;;;;;;145.73;32.28;;;;;;;-2.63;100.00;100663.19;5201639;28;20068;-74
2022/12/09 02:29:21;;;;;;;83.05;31.85;;;;;;;-2.69;100.00;100660.91;5205989;28;20057;-74
2022/12/09 02:32:15;;;;;;;82.50;32.50;;;;;;;-2.73;100.00;100659.38;5206772;28;20018;-73
2022/12/09 02:34:59;;;;;;;85.90;31.38;;;;;;;-2.79;100.00;100659.72;5206662;28;20098;-74
2022/12/09 02:37:42;;;;;;;87.00;30.60;;;;;;;-2.82;100.00;100658.09;5206659;28;20029;-73
2022/12/09 02:40:21;;;;;;;84.45;31.90;;;;;;;-2.87;100.00;100647.84;5206977;28;20029;-74
2022/12/09 02:42:54;;;;;;;76.45;30.55;;;;;;;-2.92;100.00;100649.06;5207020;28;20091;-73
2022/12/09 02:45:27;;;;;;;180.65;38.10;;;;;;;-2.98;100.00;100647.63;5207343;28;20025;-74
2022/12/09 02:48:00;;;;;;;80.85;29.95;;;;;;;-3.03;100.00;100646.19;5206749;28;20483;-74
2022/12/09 02:50:35;;;;;;;85.85;30.73;;;;;;;-3.07;100.00;100640.25;5207537;28;20028;-74
2022/12/09 02:53:10;;;;;;;84.38;31.33;;;;;;;-3.12;100.00;100645.75;5207457;28;20104;-73
2022/12/09 02:55:43;;;;;;;80.05;30.85;;;;;;;-3.17;100.00;100645.16;5206769;28;20052;-73
2022/12/09 02:58:23;;;;;;;79.38;30.42;;;;;;;-3.19;100.00;100643.56;5206628;28;20025;-74
2022/12/09 03:00:57;;;;;;;76.45;30.35;;;;;;;-3.22;100.00;100639.31;5205826;28;20017;-74
2022/12/09 03:03:31;;;;;;;87.10;32.10;;;;;;;-3.21;100.00;100638.41;5206291;28;20071;-75
2022/12/09 03:06:12;;;;;;;85.55;31.63;;;;;;;-3.21;100.00;100642.81;5205616;28;20025;-74
2022/12/09 03:08:57;;;;;;;87.75;31.00;;;;;;;-3.24;100.00;100640.31;5206013;28;20061;-75
2022/12/09 03:11:31;;;;;;;115.85;33.13;;;;;;;-3.25;100.00;100641.28;5205539;28;20029;-75
2022/12/09 03:14:09;;;;;;;84.15;32.00;;;;;;;-3.28;100.00;100641.41;5206016;28;20021;-73
2022/12/09 03:16:45;;;;;;;135.05;34.38;;;;;;;-3.29;100.00;100640.56;5205565;28;20036;-73
2022/12/09 03:19:32;;;;;;;139.23;36.13;;;;;;;-3.29;100.00;100645.81;5205794;28;20067;-73
2022/12/09 03:22:10;;;;;;;254.25;43.35;;;;;;;-3.31;100.00;100634.59;5199526;28;20033;-73
2022/12/09 03:24:51;;;;;;;170.75;37.60;;;;;;;-3.22;100.00;100627.97;5205756;28;20025;-73
2022/12/09 03:27:29;;;;;;;119.72;37.03;;;;;;;-3.18;100.00;100632.13;5194226;28;20116;-72
2022/12/09 03:30:02;;;;;;;149.35;39.05;;;;;;;-3.18;100.00;100630.34;5205152;28;20044;-72
2022/12/09 03:32:35;;;;;;;114.50;37.47;;;;;;;-3.16;100.00;100627.66;5205667;28;20383;-72
2022/12/09 03:35:16;;;;;;;290.75;43.97;;;;;;;-3.16;100.00;100628.50;5205387;28;20053;-72
2022/12/09 03:37:48;;;;;;;352.05;47.92;;;;;;;-3.19;100.00;100622.56;5205334;28;20052;-71
2022/12/09 03:40:24;;;;;;;245.85;39.78;;;;;;;-3.25;100.00;100628.16;5205146;28;20021;-72
2022/12/09 03:43:03;;;;;;;201.10;37.58;;;;;;;-3.32;100.00;100629.38;5205250;28;20026;-73
2022/12/09 03:45:33;;;;;;;96.18;32.17;;;;;;;-3.39;100.00;100629.72;5205292;28;20431;-73
2022/12/09 03:48:04;;;;;;;86.90;32.88;;;;;;;-3.40;100.00;100630.66;5204791;28;20108;-73
2022/12/09 03:50:43;;;;;;;144.52;38.60;;;;;;;-3.37;100.00;100629.63;5205390;28;20025;-72
2022/12/09 03:53:35;;;;;;;151.18;38.78;;;;;;;-3.26;100.00;100627.31;5193012;28;20108;-72
2022/12/09 03:56:20;;;;;;;114.20;35.45;;;;;;;-3.09;100.00;100636.03;5205389;28;20104;-73
2022/12/09 03:58:54;;;;;;;111.78;34.90;;;;;;;-2.96;100.00;100627.41;5204772;28;20030;-74
2022/12/09 04:01:26;;;;;;;129.95;39.08;;;;;;;-2.80;100.00;100627.38;5204422;28;20080;-74
2022/12/09 04:03:56;;;;;;;125.32;38.88;;;;;;;-2.68;100.00;100634.53;5205334;28;20036;-72
2022/12/09 04:06:27;;;;;;;120.68;40.85;;;;;;;-2.58;100.00;100628.78;5205038;28;20029;-72
2022/12/09 04:08:57;;;;;;;118.20;41.53;;;;;;;-2.51;100.00;100620.47;5204420;28;20390;-72
2022/12/09 04:11:28;;;;;;;129.65;42.38;;;;;;;-2.43;100.00;100623.47;5204837;28;20658;-73
2022/12/09 04:13:58;;;;;;;133.80;41.35;;;;;;;-2.35;100.00;100629.16;5204723;28;20529;-73
2022/12/09 04:16:29;;;;;;;131.75;42.08;;;;;;;-2.25;100.00;100626.00;5204712;28;20027;-72
2022/12/09 04:19:00;;;;;;;134.05;44.15;;;;;;;-2.18;100.00;100624.69;5203721;28;20029;-72
2022/12/09 04:21:30;;;;;;;129.55;44.78;;;;;;;-2.13;100.00;100627.88;5198275;28;20029;-74
2022/12/09 04:24:00;;;;;;;116.38;43.15;;;;;;;-2.06;100.00;100631.00;5204639;28;20040;-74
2022/12/09 04:26:31;;;;;;;126.95;44.83;;;;;;;-2.03;100.00;100634.28;5192989;28;20491;-73
2022/12/09 04:29:01;;;;;;;130.52;45.50;;;;;;;-1.99;100.00;100629.69;5204484;28;20462;-74
2022/12/09 04:31:32;;;;;;;134.95;44.85;;;;;;;-1.93;100.00;100627.53;5204125;28;20021;-74
2022/12/09 04:34:03;;;;;;;114.00;42.72;;;;;;;-1.92;100.00;100618.72;5204493;28;20025;-73
2022/12/09 04:36:33;;;;;;;114.57;41.55;;;;;;;-1.90;100.00;100622.13;5204316;28;20391;-73
2022/12/09 04:39:04;;;;;;;124.53;43.00;;;;;;;-1.86;100.00;100621.00;5203784;28;20036;-73
2022/12/09 04:41:35;;;;;;;132.57;44.78;;;;;;;-1.82;100.00;100622.47;5204149;28;20109;-73
2022/12/09 04:44:06;;;;;;;126.93;43.83;;;;;;;-1.77;100.00;100621.34;5204185;28;20487;-73
2022/12/09 04:46:36;;;;;;;128.48;43.60;;;;;;;-1.70;100.00;100622.69;5203808;28;20036;-73
2022/12/09 04:49:06;;;;;;;131.27;42.85;;;;;;;-1.67;100.00;100625.13;5203487;28;20503;-73
2022/12/09 04:51:37;;;;;;;132.75;43.60;;;;;;;-1.64;100.00;100623.16;5204148;28;20427;-73
2022/12/09 04:54:12;;;;;;;121.22;44.42;;;;;;;-1.61;100.00;100622.97;5204012;28;20078;-72
2022/12/09 04:56:43;;;;;;;136.82;44.05;;;;;;;-1.58;100.00;100625.41;5203986;28;20080;-73
2022/12/09 04:59:14;;;;;;;123.10;41.42;;;;;;;-1.57;100.00;100613.94;5203835;28;20522;-73
2022/12/09 05:01:44;;;;;;;116.57;41.42;;;;;;;-1.55;100.00;100623.53;5203653;28;20028;-74
2022/12/09 05:04:14;;;;;;;137.45;44.35;;;;;;;-1.54;100.00;100620.81;5203877;28;20053;-73
2022/12/09 05:06:45;;;;;;;158.20;43.85;;;;;;;-1.51;100.00;100622.41;5203645;28;20123;-74
2022/12/09 05:09:15;;;;;;;150.90;43.90;;;;;;;-1.49;100.00;100621.38;5203438;28;20412;-73
2022/12/09 05:11:46;;;;;;;158.55;45.85;;;;;;;-1.45;100.00;100616.78;5203965;28;20061;-73
2022/12/09 05:14:17;;;;;;;158.48;42.75;;;;;;;-1.42;100.00;100625.31;5203502;28;20045;-73
2022/12/09 05:16:47;;;;;;;270.08;49.40;;;;;;;-1.42;100.00;100621.81;5203300;28;20168;-74
2022/12/09 05:19:18;;;;;;;185.68;46.85;;;;;;;-1.42;100.00;100621.81;5203698;28;20036;-75
2022/12/09 05:21:48;;;;;;;192.55;46.42;;;;;;;-1.43;100.00;100623.63;5197980;28;20025;-74
2022/12/09 05:24:19;;;;;;;169.10;44.92;;;;;;;-1.41;100.00;100619.09;5203740;28;20055;-74
2022/12/09 05:26:49;;;;;;;228.23;50.95;;;;;;;-1.37;100.00;100619.75;5191907;28;20417;-73
2022/12/09 05:29:19;;;;;;;262.38;52.45;;;;;;;-1.34;100.00;100624.84;5204054;28;20029;-74
2022/12/09 05:31:50;;;;;;;219.10;50.65;;;;;;;-1.28;100.00;100626.25;5207483;28;20021;-73
2022/12/09 05:34:20;;;;;;;298.65;51.72;;;;;;;-1.26;100.00;100622.56;5208202;28;20075;-74
2022/12/09 05:36:51;;;;;;;256.38;52.85;;;;;;;-1.24;100.00;100622.47;5207294;28;20033;-74
2022/12/09 05:39:22;;;;;;;188.80;49.80;;;;;;;-1.20;100.00;100616.94;5207227;28;20037;-74
2022/12/09 05:41:53;;;;;;;174.98;46.13;;;;;;;-1.15;100.00;100622.75;5207836;28;20332;-75
2022/12/09 05:44:23;;;;;;;178.32;47.03;;;;;;;-1.11;100.00;100621.59;5208012;28;20148;-74
2022/12/09 05:46:54;;;;;;;172.20;47.08;;;;;;;-1.06;100.00;100623.94;5207214;28;20028;-74
2022/12/09 05:49:24;;;;;;;206.57;51.33;;;;;;;-1.01;100.00;100615.75;5207505;28;20031;-74
2022/12/09 05:51:55;;;;;;;157.85;45.80;;;;;;;-0.99;100.00;100619.16;5206172;28;20028;-73
2022/12/09 05:54:25;;;;;;;300.10;60.38;;;;;;;-0.95;100.00;100618.84;5207362;28;20026;-74
2022/12/09 05:56:56;;;;;;;276.17;54.15;;;;;;;-0.95;100.00;100615.38;5207322;28;20052;-74
2022/12/09 05:59:27;;;;;;;193.02;51.33;;;;;;;-0.93;100.00;100616.09;5207569;28;20108;-74
2022/12/09 06:01:57;;;;;;;273.92;56.65;;;;;;;-0.93;100.00;100614.31;5206014;28;20104;-75
2022/12/09 06:04:27;;;;;;;297.98;60.00;;;;;;;-0.91;100.00;100608.94;5209235;28;20127;-73
2022/12/09 06:06:58;;;;;;;218.07;52.15;;;;;;;-0.90;100.00;100611.50;5207370;28;20473;-74
2022/12/09 06:09:29;;;;;;;199.85;51.55;;;;;;;-0.85;100.00;100598.03;5207280;28;20395;-74
2022/12/09 06:11:59;;;;;;;213.80;52.17;;;;;;;-0.82;100.00;100600.44;5207121;28;20040;-74
2022/12/09 06:14:29;;;;;;;194.90;49.83;;;;;;;-0.77;100.00;100592.25;5206857;28;20075;-73
2022/12/09 06:17:00;;;;;;;178.70;46.38;;;;;;;-0.66;100.00;100589.75;5206406;28;20457;-73
2022/12/09 06:19:30;;;;;;;213.73;45.65;;;;;;;-0.64;100.00;100599.25;5206981;28;20029;-72
2022/12/09 06:22:01;;;;;;;236.07;47.25;;;;;;;-0.62;100.00;100596.53;5206857;28;20026;-72
2022/12/09 06:24:33;;;;;;;203.60;45.30;;;;;;;-0.62;100.00;100599.16;5206951;28;20044;-71
2022/12/09 06:27:04;;;;;;;176.73;40.88;;;;;;;-0.60;100.00;100605.19;5195090;28;20044;-72
2022/12/09 06:29:34;;;;;;;189.88;37.17;;;;;;;-0.60;100.00;100607.81;5206845;28;20022;-72
2022/12/09 06:32:05;;;;;;;176.48;35.20;;;;;;;-0.59;100.00;100598.97;5206742;28;20021;-72
2022/12/09 06:34:35;;;;;;;176.00;38.38;;;;;;;-0.57;100.00;100603.16;5206655;28;20025;-72
2022/12/09 06:37:06;;;;;;;216.95;45.08;;;;;;;-0.56;100.00;100604.00;5206285;28;20064;-72
2022/12/09 06:39:36;;;;;;;159.00;37.25;;;;;;;-0.54;100.00;100605.63;5206198;28;20083;-73
2022/12/09 06:42:07;;;;;;;206.52;40.05;;;;;;;-0.53;100.00;100609.94;5205798;28;20029;-72
2022/12/09 06:44:38;;;;;;;185.23;36.22;;;;;;;-0.50;100.00;100621.22;5206476;28;20391;-73
2022/12/09 06:47:09;;;;;;;172.20;35.75;;;;;;;-0.50;100.00;100611.53;5206212;28;20056;-73
2022/12/09 06:49:39;;;;;;;163.48;37.78;;;;;;;-0.50;100.00;100611.53;5206349;28;20045;-72
2022/12/09 06:52:10;;;;;;;200.00;39.55;;;;;;;-0.50;100.00;100608.91;5206150;28;20052;-73
2022/12/09 06:54:40;;;;;;;196.65;38.55;;;;;;;-0.52;100.00;100605.50;5206217;28;20095;-72
2022/12/09 06:57:11;;;;;;;156.57;35.92;;;;;;;-0.52;100.00;100610.78;5205933;28;20479;-73
2022/12/09 06:59:41;;;;;;;174.75;34.13;;;;;;;-0.51;100.00;100617.72;5206304;28;20028;-73
2022/12/09 07:02:12;;;;;;;174.73;34.45;;;;;;;-0.50;100.00;100613.31;5205908;28;20017;-73
2022/12/09 07:04:42;;;;;;;151.52;33.97;;;;;;;-0.51;100.00;100617.72;5206086;28;20414;-73
2022/12/09 07:07:14;;;;;;;189.43;35.60;;;;;;;-0.48;100.00;100621.97;5205836;28;20056;-72
2022/12/09 07:09:44;;;;;;;240.63;39.00;;;;;;;-0.48;100.00;100617.53;5206046;28;20079;-73
2022/12/09 07:12:15;;;;;;;171.65;36.30;;;;;;;-0.48;100.00;100620.19;5205950;28;20022;-72
2022/12/09 07:14:45;;;;;;;212.40;42.38;;;;;;;-0.47;100.00;100624.50;5206029;28;20471;-73
2022/12/09 07:17:18;;;;;;;218.20;40.10;;;;;;;-0.47;100.00;100619.22;5198640;28;20029;-73
2022/12/09 07:19:49;;;;;;;169.88;38.22;;;;;;;-0.44;100.00;100620.81;5202718;28;20021;-72
2022/12/09 07:22:19;;;;;;;212.02;40.92;;;;;;;-0.45;100.00;100620.00;5198620;28;20021;-73
2022/12/09 07:24:50;;;;;;;208.52;42.85;;;;;;;-0.44;100.00;100618.19;5204144;28;20036;-73
2022/12/09 07:27:20;;;;;;;201.80;37.42;;;;;;;-0.42;100.00;100624.19;5192277;28;20033;-73
2022/12/09 07:29:50;;;;;;;156.52;26.52;;;;;;;-0.43;100.00;100622.50;5203996;28;20079;-73
2022/12/09 07:32:21;;;;;;;166.30;26.45;;;;;;;-0.46;100.00;100623.53;5204437;28;20084;-73
2022/12/09 07:34:52;;;;;;;176.07;26.50;;;;;;;-0.41;100.00;100632.00;5203769;28;20071;-73
2022/12/09 07:37:22;;;;;;;164.02;26.95;;;;;;;-0.38;100.00;100623.91;5203958;28;20109;-73
2022/12/09 07:39:52;;;;;;;162.75;27.20;;;;;;;-0.37;100.00;100619.47;5204114;28;20111;-73
2022/12/09 07:42:23;;;;;;;163.48;24.73;;;;;;;-0.35;100.00;100625.47;5204068;28;20507;-73
2022/12/09 07:44:53;;;;;;;176.23;29.17;;;;;;;-0.34;100.00;100629.81;5203731;28;20029;-73
2022/12/09 07:47:24;;;;;;;173.95;28.98;;;;;;;-0.33;100.00;100634.13;5203698;28;20067;-73
2022/12/09 07:49:54;;;;;;;184.20;30.73;;;;;;;-0.34;100.00;100635.09;5202723;28;20025;-73
2022/12/09 07:52:24;;;;;;;200.02;30.08;;;;;;;-0.35;100.00;100639.53;5203346;28;20104;-73
2022/12/09 07:54:58;;;;;;;193.77;31.13;;;;;;;-0.34;100.00;100632.44;5202994;28;20439;-73
2022/12/09 07:57:28;;;;;;;184.95;27.38;;;;;;;-0.32;100.00;100638.44;5203686;28;20087;-73
2022/12/09 07:59:59;;;;;;;187.35;28.70;;;;;;;-0.32;100.00;100639.28;5204265;28;20071;-73
2022/12/09 08:02:29;;;;;;;174.77;28.65;;;;;;;-0.31;100.00;100640.13;5203010;28;20029;-73
2022/12/09 08:05:00;;;;;;;196.23;27.08;;;;;;;-0.32;100.00;100638.44;5203522;28;20032;-73
2022/12/09 08:07:32;;;;;;;165.45;25.80;;;;;;;-0.29;100.00;100638.25;5203393;28;20032;-73
2022/12/09 08:10:02;;;;;;;164.18;28.02;;;;;;;-0.27;100.00;100634.56;5204320;28;20237;-73
2022/12/09 08:12:33;;;;;;;139.63;24.55;;;;;;;-0.24;100.00;100637.97;5204055;28;20100;-71
2022/12/09 08:15:04;;;;;;;148.00;25.40;;;;;;;-0.22;100.00;100638.69;5203279;28;20386;-71
2022/12/09 08:17:34;;;;;;;168.05;26.15;;;;;;;-0.24;100.00;100633.53;5202710;28;20550;-71
2022/12/09 08:20:05;;;;;;;149.10;24.83;;;;;;;-0.20;100.00;100642.06;5201704;28;20017;-71
2022/12/09 08:22:36;;;;;;;149.57;25.17;;;;;;;-0.19;100.00;100631.44;5199474;28;20017;-71
2022/12/09 08:25:07;;;;;;;137.50;24.23;;;;;;;-0.14;100.00;100639.03;5201523;28;20083;-71
2022/12/09 08:27:38;;;;;;;138.80;25.45;;;;;;;-0.12;100.00;100637.97;5193699;28;20056;-71
2022/12/09 08:30:09;;;;;;;140.27;25.67;;;;;;;-0.09;100.00;100636.94;5202741;28;20806;-71
2022/12/09 08:32:39;;;;;;;164.05;28.20;;;;;;;-0.04;100.00;100638.31;5203227;28;20426;-71
2022/12/09 08:35:13;;;;;;;145.82;24.35;;;;;;;-0.01;100.00;100635.44;5202776;28;20021;-71
2022/12/09 08:37:44;;;;;;;153.43;25.45;;;;;;;0.00;100.00;100641.59;5202733;28;20029;-71
2022/12/09 08:40:14;;;;;;;139.35;24.58;;;;;;;0.01;100.00;100645.06;5202974;28;20426;-71
2022/12/09 08:42:45;;;;;;;138.98;24.58;;;;;;;-0.01;100.00;100650.44;5202504;28;20415;-71
2022/12/09 08:45:16;;;;;;;155.18;26.90;;;;;;;-0.01;100.00;100653.06;5202616;28;20022;-71
2022/12/09 08:47:47;;;;;;;156.65;29.80;;;;;;;0.00;100.00;100649.50;5202434;28;20039;-71
2022/12/09 08:50:17;;;;;;;152.38;28.00;;;;;;;0.02;100.00;100644.97;5203111;28;20029;-71
2022/12/09 08:52:48;;;;;;;138.10;26.25;;;;;;;0.05;100.00;100650.03;5202494;28;20028;-72
2022/12/09 08:55:19;;;;;;;164.07;29.25;;;;;;;0.12;100.00;100647.81;5202483;28;20065;-72
2022/12/09 08:57:49;;;;;;;149.90;28.77;;;;;;;0.19;100.00;100647.28;5202293;28;20030;-72
2022/12/09 09:00:20;;;;;;;149.40;27.63;;;;;;;0.23;100.00;100648.75;5202697;28;20501;-72
2022/12/09 09:02:50;;;;;;;136.23;26.65;;;;;;;0.28;100.00;100640.53;5202527;28;20391;-72
2022/12/09 09:05:21;;;;;;;140.13;26.73;;;;;;;0.29;100.00;100639.59;5201965;28;20052;-72
2022/12/09 09:07:51;;;;;;;126.03;29.40;;;;;;;0.34;100.00;100641.91;5202202;28;20264;-73
2022/12/09 09:10:22;;;;;;;133.32;27.13;;;;;;;0.35;100.00;100647.09;5202617;28;20039;-73
2022/12/09 09:12:52;;;;;;;119.55;26.95;;;;;;;0.35;100.00;100647.09;5202791;28;20030;-73
2022/12/09 09:15:23;;;;;;;143.27;30.30;;;;;;;0.37;100.00;100644.34;5202318;28;20032;-73
2022/12/09 09:17:53;;;;;;;125.07;25.60;;;;;;;0.37;100.00;100650.47;5201970;28;20059;-73
2022/12/09 09:20:24;;;;;;;112.68;25.45;;;;;;;0.35;100.00;100651.50;5197926;28;20395;-73
2022/12/09 09:22:55;;;;;;;122.65;26.98;;;;;;;0.30;100.00;100640.44;5200982;28;20029;-73
2022/12/09 09:25:25;;;;;;;108.40;25.58;;;;;;;0.25;100.00;100656.56;5198241;28;20022;-74
2022/12/09 09:27:56;;;;;;;105.50;25.23;;;;;;;0.25;100.00;100651.28;5195006;28;20112;-73
2022/12/09 09:30:26;;;;;;;111.55;24.02;;;;;;;0.28;100.00;100648.47;5202196;28;20485;-73
2022/12/09 09:32:57;;;;;;;122.97;25.85;;;;;;;0.28;100.00;100647.63;5215070;28;20017;-73
2022/12/09 09:35:27;;;;;;;121.60;23.83;;;;;;;0.33;100.00;100653.41;5202339;28;20051;-73
2022/12/09 09:37:58;;;;;;;119.40;23.63;;;;;;;0.37;100.00;100652.25;5201755;28;20068;-73
2022/12/09 09:40:31;;;;;;;111.57;23.58;;;;;;;0.42;100.00;100658.06;5201588;28;20023;-73
2022/12/09 09:43:02;;;;;;;112.75;22.70;;;;;;;0.45;100.00;100649.91;5201570;28;20040;-73
2022/12/09 09:45:33;;;;;;;109.63;25.08;;;;;;;0.48;100.00;100652.38;5200943;28;20394;-73
2022/12/09 09:48:04;;;;;;;108.47;23.38;;;;;;;0.37;100.00;100653.09;5201731;28;20037;-73
2022/12/09 09:50:49;;;;;;;100.45;22.15;;;;;;;0.36;100.00;100651.44;5202633;28;20406;-73
2022/12/09 09:53:25;;;;;;;114.80;23.50;;;;;;;0.38;100.00;100652.16;5189862;28;20029;-73
2022/12/09 09:55:58;;;;;;;97.10;21.30;;;;;;;0.43;100.00;100652.69;5201710;28;20025;-72
2022/12/09 09:58:48;;;;;;;107.78;23.30;;;;;;;0.49;100.00;100654.03;5201941;28;20022;-73
2022/12/09 10:01:20;;;;;;;108.72;22.40;;;;;;;0.49;100.00;100659.31;5189174;28;20033;-73
2022/12/09 10:03:53;;;;;;;94.05;21.15;;;;;;;0.49;100.00;100660.16;5201657;28;20108;-73
2022/12/09 10:06:50;;;;;;;89.60;21.52;;;;;;;0.54;100.00;100656.38;5202164;28;20045;-73
2022/12/09 10:09:31;;;;;;;93.93;21.27;;;;;;;0.52;100.00;100652.03;5201950;28;20423;-73
2022/12/09 10:12:35;;;;;;;86.95;21.25;;;;;;;0.52;100.00;100656.47;5201809;28;20083;-73
2022/12/09 10:15:13;;;;;;;84.82;20.77;;;;;;;0.61;100.00;100658.50;5201562;28;20553;-73
2022/12/09 10:17:54;;;;;;;84.18;20.13;;;;;;;0.60;100.00;100654.13;5204613;28;20064;-73
2022/12/09 10:20:27;;;;;;;78.95;20.52;;;;;;;0.65;100.00;100656.47;5200606;28;20022;-73
2022/12/09 10:23:10;;;;;;;84.22;19.17;;;;;;;0.73;100.00;100649.69;5202251;28;20025;-73
2022/12/09 10:25:51;;;;;;;93.72;26.90;;;;;;;0.84;100.00;100656.84;5198511;28;20025;-73
2022/12/09 10:28:26;;;;;;;123.50;46.20;;;;;;;0.84;100.00;100650.72;5212731;28;20021;-73
2022/12/09 10:30:56;;;;;;;80.65;21.83;;;;;;;0.89;100.00;100657.38;5215475;28;20457;-73
2022/12/09 10:33:38;;;;;;;75.38;20.75;;;;;;;0.92;100.00;100646.59;5212803;28;20096;-73
2022/12/09 10:36:41;;;;;;;72.30;21.65;;;;;;;0.91;100.00;100637.00;5209759;28;20044;-72
2022/12/09 10:39:19;;;;;;;58.33;16.50;;;;;;;0.69;100.00;100635.00;5202483;28;20033;-73
2022/12/09 10:44:42;;;;;;;67.65;18.05;;;;;;;0.73;100.00;100636.50;5202910;28;20021;-73
2022/12/09 10:47:24;;;;;;;59.05;17.90;;;;;;;0.83;100.00;100618.19;5218284;28;20028;-74
2022/12/09 10:49:55;;;;;;;60.15;17.73;;;;;;;0.97;100.00;100633.06;5208442;28;20033;-73
2022/12/09 10:52:30;;;;;;;61.50;19.05;;;;;;;1.07;100.00;100634.09;5218324;28;20399;-73
2022/12/09 10:55:01;;;;;;;61.35;20.02;;;;;;;1.11;100.00;100642.66;5206911;28;20529;-73
2022/12/09 10:57:31;;;;;;;50.47;15.57;;;;;;;1.04;100.00;100639.59;5206472;28;20021;-73
2022/12/09 11:00:02;;;;;;;59.35;17.08;;;;;;;0.98;100.00;100642.69;5210996;28;20629;-73
2022/12/09 11:02:33;;;;;;;62.05;18.63;;;;;;;1.07;100.00;100639.38;5214272;28;20505;-73
2022/12/09 11:05:36;;;;;;;49.75;15.35;;;;;;;1.13;100.00;100638.94;5207642;28;20025;-73
2022/12/09 11:08:07;;;;;;;50.97;14.93;;;;;;;1.18;100.00;100635.97;5191525;28;20101;-73
2022/12/09 11:10:46;;;;;;;57.40;17.55;;;;;;;1.15;100.00;100634.38;5213727;28;20029;-73
2022/12/09 11:13:19;;;;;;;46.03;15.45;;;;;;;1.11;100.00;100625.00;5219691;28;20486;-73
2022/12/09 11:15:59;;;;;;;54.10;19.80;;;;;;;1.14;100.00;100627.41;5210700;28;20028;-74
2022/12/09 11:18:41;;;;;;;47.72;15.43;;;;;;;1.15;100.00;100631.72;5210584;28;20059;-74
2022/12/09 11:21:33;;;;;;;50.10;16.10;;;;;;;1.11;100.00;100632.94;5208601;28;20510;-73
2022/12/09 11:24:04;;;;;;;50.80;15.05;;;;;;;1.13;100.00;100630.16;5222332;28;20016;-73
2022/12/09 11:26:37;;;;;;;40.90;14.50;;;;;;;1.11;100.00;100640.00;5208791;28;20021;-73
2022/12/09 11:29:17;;;;;;;43.00;14.10;;;;;;;1.02;100.00;100637.06;5210437;28;20018;-73